createdAt,value
2022-11-27T00:01:54.428Z,11.32
2022-11-27T00:03:26.777Z,11.43
2022-11-27T00:04:58.452Z,11.48
2022-11-27T00:06:31.269Z,10.80
2022-11-27T00:08:03.235Z,11.93
2022-11-27T00:09:34.811Z,11.80
2022-11-27T00:11:14.795Z,11.90
2022-11-27T00:12:46.394Z,11.55
2022-11-27T00:14:18.734Z,11.43
2022-11-27T00:15:50.475Z,10.32
2022-11-27T00:17:22.121Z,10.00
2022-11-27T00:18:53.939Z,10.38
2022-11-27T00:20:29.608Z,12.27
2022-11-27T00:22:01.375Z,10.57
2022-11-27T00:23:34.645Z,11.25
2022-11-27T00:25:06.768Z,11.60
2022-11-27T00:26:38.655Z,9.45
2022-11-27T00:28:10.364Z,11.80
2022-11-27T00:29:41.989Z,10.88
2022-11-27T00:31:17.258Z,12.32
2022-11-27T00:32:48.902Z,12.23
2022-11-27T00:34:20.486Z,10.80
2022-11-27T00:35:52.110Z,11.32
2022-11-27T00:37:23.702Z,11.32
2022-11-27T00:38:55.812Z,10.88
2022-11-27T00:40:27.425Z,10.63
2022-11-27T00:41:59.340Z,10.43
2022-11-27T00:43:31.415Z,9.55
2022-11-27T00:45:08.927Z,9.38
2022-11-27T00:46:41.724Z,9.68
2022-11-27T00:48:13.372Z,8.80
2022-11-27T00:49:46.602Z,8.88
2022-11-27T00:51:20.226Z,9.38
2022-11-27T00:52:51.787Z,9.70
2022-11-27T00:54:23.366Z,9.15
2022-11-27T00:55:56.013Z,8.93
2022-11-27T00:57:27.611Z,9.63
2022-11-27T00:58:59.825Z,9.75
2022-11-27T01:00:31.450Z,9.95
2022-11-27T01:02:03.138Z,9.15
2022-11-27T01:03:35.819Z,9.55
2022-11-27T01:05:07.984Z,9.60
2022-11-27T01:06:39.808Z,9.38
2022-11-27T01:08:11.329Z,8.55
2022-11-27T01:09:42.987Z,9.32
2022-11-27T01:11:20.642Z,8.43
2022-11-27T01:12:52.240Z,9.50
2022-11-27T01:14:23.893Z,9.27
2022-11-27T01:16:06.984Z,9.35
2022-11-27T01:17:38.773Z,9.73
2022-11-27T01:19:12.459Z,8.45
2022-11-27T01:20:44.013Z,8.68
2022-11-27T01:22:15.692Z,9.73
2022-11-27T01:23:48.536Z,7.88
2022-11-27T01:25:21.936Z,10.02
2022-11-27T01:26:57.181Z,10.07
2022-11-27T01:28:29.043Z,8.55
2022-11-27T01:30:00.672Z,10.60
2022-11-27T01:31:33.885Z,8.82
2022-11-27T01:33:05.736Z,9.90
2022-11-27T01:34:37.482Z,8.65
2022-11-27T01:36:11.640Z,7.82
2022-11-27T01:37:43.222Z,8.05
2022-11-27T01:39:20.394Z,8.27
2022-11-27T01:41:03.849Z,8.20
2022-11-27T01:42:35.357Z,7.65
2022-11-27T01:44:25.369Z,8.73
2022-11-27T01:45:56.991Z,8.38
2022-11-27T01:47:45.648Z,8.45
2022-11-27T01:49:34.285Z,9.75
2022-11-27T01:51:06.322Z,8.98
2022-11-27T01:52:42.959Z,7.15
2022-11-27T01:54:16.277Z,8.07
2022-11-27T01:55:52.770Z,7.50
2022-11-27T01:57:30.631Z,8.30
2022-11-27T01:59:03.313Z,7.70
2022-11-27T02:00:35.488Z,8.20
2022-11-27T02:02:07.383Z,6.75
2022-11-27T02:03:39.141Z,8.85
2022-11-27T02:05:15.740Z,8.27
2022-11-27T02:06:47.349Z,7.97
2022-11-27T02:08:19.290Z,7.68
2022-11-27T02:09:51.104Z,7.60
2022-11-27T02:11:48.913Z,7.57
2022-11-27T02:13:29.337Z,6.82
2022-11-27T02:15:10.880Z,7.15
2022-11-27T02:16:45.490Z,7.47
2022-11-27T02:18:51.028Z,7.20
2022-11-27T02:20:47.997Z,6.70
2022-11-27T02:22:38.389Z,6.93
2022-11-27T02:24:15.983Z,6.68
2022-11-27T02:26:06.374Z,7.30
2022-11-27T02:27:59.189Z,7.03
2022-11-27T02:29:35.353Z,8.07
2022-11-27T02:33:01.545Z,7.07
2022-11-27T02:34:54.192Z,7.60
2022-11-27T02:36:31.626Z,6.93
2022-11-27T02:38:11.101Z,7.53
2022-11-27T02:39:55.473Z,8.00
2022-11-27T02:41:33.593Z,6.88
2022-11-27T02:43:11.157Z,7.43
2022-11-27T02:44:52.433Z,8.05
2022-11-27T02:46:27.123Z,7.65
2022-11-27T02:47:59.711Z,7.28
2022-11-27T02:49:32.916Z,8.18
2022-11-27T02:51:06.842Z,8.00
2022-11-27T02:52:40.266Z,8.07
2022-11-27T02:54:19.472Z,7.50
2022-11-27T02:55:52.927Z,7.22
2022-11-27T02:57:26.777Z,7.35
2022-11-27T02:59:02.110Z,7.78
2022-11-27T03:00:35.335Z,8.18
2022-11-27T03:02:13.446Z,8.45
2022-11-27T03:03:49.909Z,7.47
2022-11-27T03:05:26.152Z,7.70
2022-11-27T03:07:01.560Z,7.45
2022-11-27T03:08:43.972Z,7.95
2022-11-27T03:10:24.459Z,7.28
2022-11-27T03:11:56.693Z,7.10
2022-11-27T03:13:30.506Z,6.72
2022-11-27T03:15:02.179Z,6.38
2022-11-27T03:17:10.995Z,7.20
2022-11-27T03:18:59.064Z,5.22
2022-11-27T03:20:38.882Z,5.82
2022-11-27T03:22:11.353Z,6.00
2022-11-27T03:23:43.013Z,6.53
2022-11-27T03:25:16.290Z,6.35
2022-11-27T03:26:48.434Z,7.47
2022-11-27T03:28:21.306Z,6.07
2022-11-27T03:29:58.458Z,6.50
2022-11-27T03:31:30.563Z,5.97
2022-11-27T03:33:02.305Z,7.35
2022-11-27T03:34:34.185Z,7.03
2022-11-27T03:36:18.967Z,5.85
2022-11-27T03:37:51.204Z,5.38
2022-11-27T03:39:24.321Z,6.40
2022-11-27T03:41:21.760Z,5.72
2022-11-27T03:43:13.437Z,5.75
2022-11-27T03:45:22.179Z,6.30
2022-11-27T03:47:31.413Z,5.60
2022-11-27T03:49:10.875Z,6.40
2022-11-27T03:50:50.253Z,7.28
2022-11-27T03:52:53.959Z,7.53
2022-11-27T03:55:26.925Z,6.43
2022-11-27T03:57:05.432Z,5.90
2022-11-27T03:58:40.328Z,6.57
2022-11-27T04:00:12.646Z,5.93
2022-11-27T04:01:44.772Z,6.07
2022-11-27T04:03:24.850Z,6.78
2022-11-27T04:04:56.648Z,6.05
2022-11-27T04:06:28.252Z,11.35
2022-11-27T04:07:59.846Z,5.85
2022-11-27T04:09:31.381Z,6.90
2022-11-27T04:11:03.008Z,7.05
2022-11-27T04:12:34.620Z,7.38
2022-11-27T04:14:06.415Z,6.78
2022-11-27T04:15:38.077Z,7.53
2022-11-27T04:17:09.678Z,7.85
2022-11-27T04:18:41.345Z,7.50
2022-11-27T04:20:14.314Z,7.88
2022-11-27T04:21:45.855Z,6.57
2022-11-27T04:23:17.426Z,7.10
2022-11-27T04:24:49.028Z,7.25
2022-11-27T04:26:20.615Z,7.97
2022-11-27T04:27:52.252Z,7.43
2022-11-27T04:29:23.776Z,7.55
2022-11-27T04:30:55.370Z,8.05
2022-11-27T04:32:26.907Z,5.75
2022-11-27T04:33:58.532Z,5.53
2022-11-27T04:35:30.115Z,5.70
2022-11-27T04:37:01.980Z,5.47
2022-11-27T04:38:33.523Z,5.63
2022-11-27T04:40:06.022Z,5.10
2022-11-27T04:41:37.521Z,5.82
2022-11-27T04:43:09.073Z,6.32
2022-11-27T04:44:40.833Z,5.25
2022-11-27T04:46:12.576Z,5.40
2022-11-27T04:47:44.132Z,6.43
2022-11-27T04:49:15.623Z,6.03
2022-11-27T04:50:47.243Z,5.20
2022-11-27T04:52:18.807Z,5.95
2022-11-27T04:53:50.579Z,6.10
2022-11-27T04:55:22.263Z,6.10
2022-11-27T04:56:53.815Z,6.28
2022-11-27T04:58:25.361Z,6.47
2022-11-27T04:59:56.968Z,5.97
2022-11-27T05:01:28.552Z,5.93
2022-11-27T05:03:00.321Z,6.53
2022-11-27T05:04:32.019Z,5.32
2022-11-27T05:06:03.726Z,5.95
2022-11-27T05:07:35.453Z,6.30
2022-11-27T05:09:07.345Z,7.25
2022-11-27T05:10:38.922Z,6.75
2022-11-27T05:12:10.549Z,7.53
2022-11-27T05:13:42.952Z,6.18
2022-11-27T05:15:14.561Z,6.80
2022-11-27T05:16:51.376Z,5.72
2022-11-27T05:18:23.451Z,6.15
2022-11-27T05:19:55.048Z,5.70
2022-11-27T05:21:26.589Z,5.53
2022-11-27T05:22:58.082Z,5.38
2022-11-27T05:24:30.054Z,5.20
2022-11-27T05:26:01.634Z,4.25
2022-11-27T05:27:33.300Z,4.97
2022-11-27T05:29:05.591Z,5.07
2022-11-27T05:30:37.505Z,5.78
2022-11-27T05:32:09.052Z,4.97
2022-11-27T05:33:40.580Z,5.20
2022-11-27T05:35:12.185Z,4.68
2022-11-27T05:36:43.815Z,4.72
2022-11-27T05:38:15.491Z,6.18
2022-11-27T05:39:47.394Z,5.47
2022-11-27T05:41:19.294Z,4.75
2022-11-27T05:42:50.855Z,5.53
2022-11-27T05:44:22.367Z,5.00
2022-11-27T05:45:53.949Z,4.70
2022-11-27T05:47:25.697Z,6.07
2022-11-27T05:48:57.406Z,5.50
2022-11-27T05:50:29.218Z,5.78
2022-11-27T05:52:00.830Z,4.72
2022-11-27T05:53:32.992Z,4.80
2022-11-27T05:55:05.725Z,4.57
2022-11-27T05:56:37.255Z,5.07
2022-11-27T05:58:08.858Z,5.13
2022-11-27T05:59:40.423Z,6.20
2022-11-27T06:01:14.062Z,6.95
2022-11-27T06:02:45.729Z,6.30
2022-11-27T06:04:17.620Z,4.95
2022-11-27T06:05:49.191Z,5.63
2022-11-27T06:07:20.796Z,5.07
2022-11-27T06:08:52.409Z,5.22
2022-11-27T06:10:23.940Z,5.75
2022-11-27T06:11:55.563Z,4.80
2022-11-27T06:13:27.064Z,6.85
2022-11-27T06:14:58.602Z,5.68
2022-11-27T06:16:30.283Z,7.50
2022-11-27T06:18:01.943Z,7.43
2022-11-27T06:19:33.448Z,8.35
2022-11-27T06:21:14.368Z,8.32
2022-11-27T06:22:45.994Z,9.05
2022-11-27T06:24:17.582Z,7.63
2022-11-27T06:25:49.210Z,7.88
2022-11-27T06:27:20.746Z,7.80
2022-11-27T06:28:53.693Z,6.07
2022-11-27T06:30:25.285Z,5.40
2022-11-27T06:31:56.864Z,5.90
2022-11-27T06:33:28.434Z,5.90
2022-11-27T06:35:00.066Z,6.00
2022-11-27T06:36:38.054Z,5.88
2022-11-27T06:38:09.659Z,5.35
2022-11-27T06:39:41.160Z,5.38
2022-11-27T06:41:15.611Z,5.68
2022-11-27T06:42:47.163Z,5.72
2022-11-27T06:44:18.800Z,5.57
2022-11-27T06:45:56.121Z,6.45
2022-11-27T06:47:28.064Z,5.22
2022-11-27T06:48:59.710Z,5.85
2022-11-27T06:50:31.250Z,5.85
2022-11-27T06:52:02.942Z,5.97
2022-11-27T06:53:36.552Z,5.72
2022-11-27T06:55:08.361Z,5.32
2022-11-27T06:56:39.918Z,4.95
2022-11-27T06:58:11.928Z,4.47
2022-11-27T06:59:43.504Z,4.70
2022-11-27T07:01:17.155Z,5.28
2022-11-27T07:02:53.937Z,5.75
2022-11-27T07:04:25.585Z,5.40
2022-11-27T07:06:01.650Z,5.72
2022-11-27T07:07:33.279Z,5.60
2022-11-27T07:09:05.744Z,5.28
2022-11-27T07:10:37.273Z,6.20
2022-11-27T07:12:09.203Z,5.97
2022-11-27T07:13:41.233Z,6.03
2022-11-27T07:15:12.819Z,5.10
2022-11-27T07:16:44.457Z,5.93
2022-11-27T07:18:16.034Z,5.18
2022-11-27T07:19:47.683Z,7.45
2022-11-27T07:21:19.355Z,6.72
2022-11-27T07:22:50.894Z,7.00
2022-11-27T07:24:22.558Z,5.95
2022-11-27T07:25:54.108Z,6.18
2022-11-27T07:27:26.629Z,6.82
2022-11-27T07:28:58.287Z,7.78
2022-11-27T07:30:29.854Z,6.57
2022-11-27T07:32:01.496Z,6.05
2022-11-27T07:33:33.235Z,7.22
2022-11-27T07:35:05.325Z,10.55
2022-11-27T07:36:36.959Z,9.73
2022-11-27T07:38:08.501Z,7.70
2022-11-27T07:40:01.279Z,8.13
2022-11-27T07:41:34.081Z,5.38
2022-11-27T07:43:05.984Z,6.28
2022-11-27T07:44:37.534Z,6.40
2022-11-27T07:46:13.622Z,6.30
2022-11-27T07:47:45.640Z,6.55
2022-11-27T07:49:17.151Z,6.75
2022-11-27T07:50:48.806Z,6.72
2022-11-27T07:52:20.446Z,7.50
2022-11-27T07:53:52.102Z,6.43
2022-11-27T07:55:23.715Z,5.68
2022-11-27T07:56:55.327Z,5.72
2022-11-27T07:58:27.111Z,5.15
2022-11-27T07:59:58.691Z,5.50
2022-11-27T08:01:30.403Z,5.13
2022-11-27T08:03:02.218Z,5.65
2022-11-27T08:04:33.841Z,5.28
2022-11-27T08:06:13.351Z,6.25
2022-11-27T08:07:45.057Z,5.03
2022-11-27T08:09:16.701Z,7.15
2022-11-27T08:10:48.267Z,6.90
2022-11-27T08:12:19.813Z,7.93
2022-11-27T08:13:56.551Z,8.13
2022-11-27T08:15:28.381Z,8.52
2022-11-27T08:16:59.974Z,5.75
2022-11-27T08:18:31.569Z,5.60
2022-11-27T08:20:03.621Z,6.13
2022-11-27T08:21:35.211Z,8.05
2022-11-27T08:23:06.812Z,7.20
2022-11-27T08:24:39.119Z,4.97
2022-11-27T08:26:12.502Z,5.15
2022-11-27T08:27:44.791Z,4.55
2022-11-27T08:29:16.333Z,5.10
2022-11-27T08:30:56.543Z,4.72
2022-11-27T08:32:28.113Z,5.18
2022-11-27T08:33:59.967Z,4.78
2022-11-27T08:35:31.595Z,5.28
2022-11-27T08:37:06.821Z,5.47
2022-11-27T08:38:38.810Z,4.60
2022-11-27T08:40:10.932Z,5.25
2022-11-27T08:41:42.619Z,5.82
2022-11-27T08:43:14.347Z,5.80
2022-11-27T08:44:45.999Z,5.78
2022-11-27T08:46:17.647Z,5.43
2022-11-27T08:47:49.375Z,5.07
2022-11-27T08:49:21.072Z,4.55
2022-11-27T08:50:53.107Z,5.13
2022-11-27T08:52:24.751Z,5.43
2022-11-27T08:53:56.383Z,5.60
2022-11-27T08:55:28.059Z,6.55
2022-11-27T08:56:59.603Z,5.72
2022-11-27T08:58:31.218Z,5.25
2022-11-27T09:00:04.010Z,4.82
2022-11-27T09:01:35.725Z,6.32
2022-11-27T09:03:07.483Z,5.82
2022-11-27T09:04:39.547Z,6.70
2022-11-27T09:06:14.541Z,6.97
2022-11-27T09:07:46.235Z,7.93
2022-11-27T09:09:18.223Z,7.75
2022-11-27T09:10:49.822Z,7.00
2022-11-27T09:12:21.491Z,8.38
2022-11-27T09:13:53.419Z,9.20
2022-11-27T09:15:25.071Z,11.05
2022-11-27T09:16:56.883Z,12.10
2022-11-27T09:18:28.504Z,11.82
2022-11-27T09:20:00.160Z,9.85
2022-11-27T09:21:31.837Z,12.32
2022-11-27T09:23:03.531Z,9.50
2022-11-27T09:24:36.367Z,7.97
2022-11-27T09:26:17.316Z,8.18
2022-11-27T09:27:48.914Z,7.65
2022-11-27T09:29:20.740Z,7.75
2022-11-27T09:31:00.682Z,7.13
2022-11-27T09:32:32.304Z,8.25
2022-11-27T09:34:04.827Z,8.43
2022-11-27T09:35:39.602Z,6.93
2022-11-27T09:37:11.268Z,6.90
2022-11-27T09:38:42.906Z,6.65
2022-11-27T09:40:17.589Z,6.35
2022-11-27T09:41:50.327Z,9.38
2022-11-27T09:43:33.516Z,9.35
2022-11-27T09:45:11.065Z,11.75
2022-11-27T09:46:44.209Z,9.27
2022-11-27T09:48:22.057Z,9.65
2022-11-27T09:50:07.328Z,9.25
2022-11-27T09:51:43.798Z,9.13
2022-11-27T09:53:18.350Z,9.13
2022-11-27T09:54:58.050Z,9.40
2022-11-27T09:56:33.017Z,8.38
2022-11-27T09:58:11.768Z,9.60
2022-11-27T09:59:49.063Z,7.65
2022-11-27T10:01:40.544Z,9.30
2022-11-27T10:03:21.798Z,8.68
2022-11-27T10:06:45.162Z,7.93
2022-11-27T10:08:41.369Z,7.75
2022-11-27T10:10:40.768Z,6.07
2022-11-27T10:12:34.231Z,6.38
2022-11-27T10:14:17.632Z,8.65
2022-11-27T10:15:56.048Z,6.47
2022-11-27T10:17:41.012Z,7.13
2022-11-27T10:19:21.823Z,6.35
2022-11-27T10:21:03.309Z,6.05
2022-11-27T10:23:00.488Z,7.30
2022-11-27T10:24:43.676Z,6.63
2022-11-27T10:26:29.415Z,7.88
2022-11-27T10:28:27.109Z,6.45
2022-11-27T10:30:01.408Z,9.80
2022-11-27T10:31:38.850Z,8.10
2022-11-27T10:33:38.376Z,7.60
2022-11-27T10:35:22.119Z,7.13
2022-11-27T10:36:55.695Z,6.57
2022-11-27T10:38:32.176Z,6.65
2022-11-27T10:40:09.201Z,6.22
2022-11-27T10:41:53.933Z,6.88
2022-11-27T10:43:26.195Z,7.13
2022-11-27T10:45:04.440Z,7.60
2022-11-27T10:46:38.567Z,7.40
2022-11-27T10:48:11.439Z,6.68
2022-11-27T10:49:44.890Z,6.40
2022-11-27T10:51:22.893Z,6.78
2022-11-27T10:53:02.602Z,7.55
2022-11-27T10:54:39.547Z,6.97
2022-11-27T10:56:15.652Z,8.13
2022-11-27T10:58:24.150Z,8.07
2022-11-27T11:00:19.151Z,9.05
2022-11-27T11:03:25.210Z,6.88
2022-11-27T11:05:24.150Z,7.82
2022-11-27T11:06:52.372Z,7.57
2022-11-27T11:08:25.393Z,7.22
2022-11-27T11:09:57.228Z,6.97
2022-11-27T11:11:28.814Z,6.53
2022-11-27T11:13:21.747Z,7.38
2022-11-27T11:15:00.726Z,6.53
2022-11-27T11:16:35.699Z,7.53
2022-11-27T11:18:17.553Z,6.65
2022-11-27T11:19:49.155Z,6.00
2022-11-27T11:21:34.495Z,6.57
2022-11-27T11:23:06.682Z,6.75
2022-11-27T11:24:43.705Z,6.63
2022-11-27T11:26:21.046Z,6.10
2022-11-27T11:27:52.993Z,6.15
2022-11-27T11:29:27.940Z,5.95
2022-11-27T11:31:05.852Z,6.00
2022-11-27T11:32:39.740Z,5.95
2022-11-27T11:34:22.744Z,6.45
2022-11-27T11:35:59.753Z,7.60
2022-11-27T11:37:39.748Z,7.85
2022-11-27T11:39:24.689Z,7.50
2022-11-27T11:41:02.900Z,7.22
2022-11-27T11:42:36.681Z,7.38
2022-11-27T11:44:22.771Z,7.82
2022-11-27T11:45:56.387Z,7.57
2022-11-27T11:47:28.802Z,7.95
2022-11-27T11:49:24.394Z,8.73
2022-11-27T11:51:00.624Z,8.20
2022-11-27T11:52:46.848Z,7.53
2022-11-27T11:54:29.354Z,9.43
2022-11-27T11:56:25.027Z,8.77
2022-11-27T11:58:34.661Z,9.50
2022-11-27T12:00:11.383Z,8.35
2022-11-27T12:01:58.296Z,8.60
2022-11-27T12:04:00.533Z,7.85
2022-11-27T12:05:34.983Z,8.30
2022-11-27T12:07:23.310Z,8.95
2022-11-27T12:09:06.819Z,10.00
2022-11-27T12:10:50.623Z,7.80
2022-11-27T12:12:40.659Z,9.18
2022-11-27T12:14:28.432Z,8.20
2022-11-27T12:16:35.338Z,7.85
2022-11-27T12:18:32.962Z,8.70
2022-11-27T12:20:23.559Z,9.27
2022-11-27T12:22:02.888Z,9.55
2022-11-27T12:23:37.711Z,8.60
2022-11-27T12:25:24.622Z,9.23
2022-11-27T12:27:31.315Z,7.13
2022-11-27T12:29:08.581Z,8.05
2022-11-27T12:30:59.003Z,8.23
2022-11-27T12:33:09.120Z,7.63
2022-11-27T12:34:49.423Z,8.70
2022-11-27T12:36:51.052Z,8.30
2022-11-27T12:38:30.966Z,9.70
2022-11-27T12:40:08.651Z,9.10
2022-11-27T12:41:46.780Z,8.10
2022-11-27T12:43:25.667Z,7.65
2022-11-27T12:45:06.393Z,5.78
2022-11-27T12:46:49.783Z,6.10
2022-11-27T12:48:36.695Z,5.45
2022-11-27T12:50:19.226Z,6.10
2022-11-27T12:52:03.836Z,7.80
2022-11-27T12:53:44.936Z,6.85
2022-11-27T12:55:26.630Z,6.47
2022-11-27T12:57:02.750Z,6.70
2022-11-27T12:58:41.322Z,7.57
2022-11-27T13:00:21.306Z,5.85
2022-11-27T13:02:14.251Z,7.00
2022-11-27T13:04:03.947Z,6.18
2022-11-27T13:05:41.204Z,7.20
2022-11-27T13:07:15.466Z,5.85
2022-11-27T13:08:57.433Z,8.18
2022-11-27T13:10:52.465Z,8.57
2022-11-27T13:14:05.814Z,8.90
2022-11-27T13:16:03.102Z,8.60
2022-11-27T13:17:41.974Z,8.18
2022-11-27T13:19:23.701Z,12.20
2022-11-27T13:20:59.709Z,9.15
2022-11-27T13:24:06.551Z,13.60
2022-11-27T13:25:51.289Z,9.25
2022-11-27T13:27:27.008Z,9.32
2022-11-27T13:29:03.306Z,9.85
2022-11-27T13:30:38.165Z,8.35
2022-11-27T13:32:18.907Z,10.00
2022-11-27T13:33:52.069Z,9.43
2022-11-27T13:35:27.407Z,8.38
2022-11-27T13:37:05.207Z,7.38
2022-11-27T13:38:41.902Z,7.18
2022-11-27T13:40:16.334Z,7.15
2022-11-27T13:41:49.145Z,7.43
2022-11-27T13:43:20.765Z,7.05
2022-11-27T13:45:01.729Z,7.78
2022-11-27T13:46:45.800Z,9.23
2022-11-27T13:48:32.673Z,9.13
2022-11-27T13:50:09.251Z,8.93
2022-11-27T13:51:42.655Z,8.30
2022-11-27T13:53:14.469Z,7.75
2022-11-27T13:55:00.441Z,6.60
2022-11-27T13:56:32.078Z,8.52
2022-11-27T13:58:05.600Z,8.55
2022-11-27T13:59:39.425Z,8.88
2022-11-27T14:01:18.274Z,9.30
2022-11-27T14:02:51.625Z,8.40
2022-11-27T14:04:23.652Z,7.88
2022-11-27T14:05:56.555Z,8.75
2022-11-27T14:07:37.821Z,8.95
2022-11-27T14:09:09.553Z,8.23
2022-11-27T14:10:50.956Z,8.98
2022-11-27T14:12:33.382Z,8.45
2022-11-27T14:14:20.236Z,8.90
2022-11-27T14:16:02.342Z,9.15
2022-11-27T14:17:44.531Z,8.68
2022-11-27T14:19:33.832Z,9.48
2022-11-27T14:21:05.803Z,10.15
2022-11-27T14:23:07.032Z,9.43
2022-11-27T14:24:43.684Z,8.80
2022-11-27T14:26:15.849Z,9.27
2022-11-27T14:27:50.055Z,11.70
2022-11-27T14:31:33.408Z,10.65
2022-11-27T14:33:15.564Z,10.55
2022-11-27T14:34:48.840Z,10.18
2022-11-27T14:36:27.013Z,10.80
2022-11-27T14:38:13.900Z,10.18
2022-11-27T14:39:45.569Z,11.77
2022-11-27T14:41:20.278Z,11.35
2022-11-27T14:42:52.161Z,11.20
2022-11-27T14:44:23.805Z,11.15
2022-11-27T14:45:58.844Z,10.32
2022-11-27T14:47:30.783Z,10.57
2022-11-27T14:49:02.754Z,10.50
2022-11-27T14:50:34.471Z,11.07
2022-11-27T14:52:12.608Z,10.25
2022-11-27T14:53:49.631Z,10.95
2022-11-27T14:55:22.718Z,13.90
2022-11-27T14:56:55.502Z,12.43
2022-11-27T14:58:29.998Z,12.68
2022-11-27T15:00:16.131Z,11.77
2022-11-27T15:02:03.691Z,12.60
2022-11-27T15:03:35.701Z,11.68
2022-11-27T15:05:07.915Z,10.85
2022-11-27T15:06:43.863Z,11.23
2022-11-27T15:08:15.989Z,12.23
2022-11-27T15:09:50.326Z,12.45
2022-11-27T15:11:53.932Z,10.68
2022-11-27T15:13:24.326Z,11.45
2022-11-27T15:15:07.705Z,10.45
2022-11-27T15:16:49.355Z,11.45
2022-11-27T15:18:23.031Z,10.75
2022-11-27T15:19:56.278Z,10.60
2022-11-27T15:21:28.676Z,11.05
2022-11-27T15:23:00.776Z,12.13
2022-11-27T15:24:37.187Z,11.73
2022-11-27T15:26:15.876Z,10.48
2022-11-27T15:27:48.164Z,10.70
2022-11-27T15:29:36.160Z,11.15
2022-11-27T15:31:29.666Z,9.63
2022-11-27T15:33:01.472Z,10.15
2022-11-27T15:34:34.962Z,10.82
2022-11-27T15:36:18.892Z,12.23
2022-11-27T15:37:51.731Z,10.27
2022-11-27T15:39:25.457Z,10.52
2022-11-27T15:41:00.777Z,10.38
2022-11-27T15:42:32.492Z,11.05
2022-11-27T15:44:08.716Z,11.48
2022-11-27T15:45:41.232Z,12.00
2022-11-27T15:47:40.224Z,11.57
2022-11-27T15:49:14.189Z,11.25
2022-11-27T15:50:51.366Z,11.68
2022-11-27T15:52:24.111Z,11.57
2022-11-27T15:53:55.749Z,11.13
2022-11-27T15:55:27.433Z,10.02
2022-11-27T15:56:58.998Z,12.43
2022-11-27T15:58:30.632Z,11.45
2022-11-27T16:00:04.037Z,11.02
2022-11-27T16:01:43.233Z,11.15
2022-11-27T16:03:15.575Z,11.38
2022-11-27T16:04:47.172Z,12.20
2022-11-27T16:06:20.861Z,11.02
2022-11-27T16:07:55.307Z,10.57
2022-11-27T16:09:27.558Z,10.40
2022-11-27T16:11:01.710Z,9.02
2022-11-27T16:12:33.463Z,10.50
2022-11-27T16:14:05.227Z,11.20
2022-11-27T16:15:36.870Z,10.48
2022-11-27T16:17:08.600Z,10.88
2022-11-27T16:18:40.211Z,10.05
2022-11-27T16:20:12.358Z,10.70
2022-11-27T16:21:44.118Z,11.40
2022-11-27T16:23:15.749Z,12.57
2022-11-27T16:24:47.358Z,12.23
2022-11-27T16:26:18.887Z,11.23
2022-11-27T16:27:50.540Z,11.50
2022-11-27T16:29:22.350Z,10.73
2022-11-27T16:30:55.869Z,11.98
2022-11-27T16:32:27.529Z,12.50
2022-11-27T16:34:01.521Z,10.75
2022-11-27T16:35:33.304Z,11.88
2022-11-27T16:37:05.615Z,10.95
2022-11-27T16:38:37.865Z,11.70
2022-11-27T16:40:10.250Z,11.73
2022-11-27T16:41:42.386Z,12.75
2022-11-27T16:43:14.509Z,13.27
2022-11-27T16:44:46.410Z,11.95
2022-11-27T16:46:21.152Z,10.27
2022-11-27T16:47:53.252Z,10.73
2022-11-27T16:49:25.035Z,10.52
2022-11-27T16:51:03.426Z,11.27
2022-11-27T16:52:35.164Z,9.93
2022-11-27T16:54:10.045Z,9.88
2022-11-27T16:55:42.347Z,10.02
2022-11-27T16:57:14.078Z,10.20
2022-11-27T16:58:47.295Z,10.38
2022-11-27T17:00:19.374Z,8.98
2022-11-27T17:01:51.620Z,9.82
2022-11-27T17:03:23.357Z,8.95
2022-11-27T17:04:56.007Z,7.88
2022-11-27T17:06:30.103Z,7.88
2022-11-27T17:08:01.782Z,8.55
2022-11-27T17:09:33.559Z,7.88
2022-11-27T17:11:14.136Z,7.53
2022-11-27T17:12:45.758Z,9.65
2022-11-27T17:14:18.491Z,8.10
2022-11-27T17:15:50.283Z,8.48
2022-11-27T17:17:22.149Z,8.07
2022-11-27T17:18:54.252Z,9.38
2022-11-27T17:20:26.976Z,8.15
2022-11-27T17:21:58.740Z,8.25
2022-11-27T17:23:30.505Z,7.60
2022-11-27T17:25:03.084Z,7.85
2022-11-27T17:26:42.356Z,10.00
2022-11-27T17:28:14.078Z,8.23
2022-11-27T17:29:45.725Z,7.75
2022-11-27T17:31:20.314Z,7.70
2022-11-27T17:32:52.481Z,7.53
2022-11-27T17:34:24.129Z,8.02
2022-11-27T17:35:56.247Z,7.75
2022-11-27T17:37:28.013Z,8.45
2022-11-27T17:39:02.524Z,10.13
2022-11-27T17:40:34.103Z,9.15
2022-11-27T17:42:10.033Z,9.45
2022-11-27T17:43:44.526Z,10.88
2022-11-27T17:45:16.444Z,11.20
2022-11-27T17:46:50.604Z,11.68
2022-11-27T17:48:24.292Z,13.30
2022-11-27T17:49:55.935Z,11.68
2022-11-27T17:51:30.374Z,11.30
2022-11-27T17:53:02.923Z,10.23
2022-11-27T17:54:34.840Z,10.90
2022-11-27T17:56:09.115Z,11.15
2022-11-27T17:57:40.828Z,11.02
2022-11-27T17:59:13.025Z,11.35
2022-11-27T18:00:45.678Z,13.23
2022-11-27T18:02:17.858Z,12.30
2022-11-27T18:03:50.355Z,14.45
2022-11-27T18:05:22.000Z,12.30
2022-11-27T18:06:53.676Z,10.85
2022-11-27T18:08:28.000Z,12.70
2022-11-27T18:09:59.792Z,15.90
2022-11-27T18:11:34.063Z,17.10
2022-11-27T18:13:05.902Z,13.38
2022-11-27T18:14:37.680Z,17.98
2022-11-27T18:16:22.069Z,13.75
2022-11-27T18:17:53.913Z,10.65
2022-11-27T18:19:25.525Z,13.75
2022-11-27T18:20:57.204Z,13.57
2022-11-27T18:22:28.883Z,13.32
2022-11-27T18:24:22.618Z,12.85
2022-11-27T18:25:52.819Z,13.23
2022-11-27T18:27:24.610Z,14.15
2022-11-27T18:28:58.530Z,12.50
2022-11-27T18:30:30.249Z,12.25
2022-11-27T18:32:02.156Z,12.32
2022-11-27T18:33:33.995Z,13.05
2022-11-27T18:35:06.747Z,11.93
2022-11-27T18:36:38.391Z,10.60
2022-11-27T18:38:10.238Z,11.75
2022-11-27T18:39:44.426Z,10.55
2022-11-27T18:41:23.877Z,10.38
2022-11-27T18:42:55.499Z,9.15
2022-11-27T18:44:27.400Z,8.63
2022-11-27T18:45:59.178Z,10.10
2022-11-27T18:47:32.112Z,8.90
2022-11-27T18:49:03.840Z,9.70
2022-11-27T18:50:36.163Z,7.32
2022-11-27T18:52:09.144Z,9.23
2022-11-27T18:53:42.095Z,9.57
2022-11-27T18:55:14.240Z,9.50
2022-11-27T18:56:46.071Z,10.32
2022-11-27T18:58:18.363Z,9.93
2022-11-27T18:59:50.278Z,12.00
2022-11-27T19:01:26.194Z,9.75
2022-11-27T19:02:58.257Z,11.35
2022-11-27T19:04:30.010Z,10.63
2022-11-27T19:06:03.188Z,10.13
2022-11-27T19:07:34.894Z,9.85
2022-11-27T19:09:07.006Z,10.32
2022-11-27T19:10:38.873Z,9.95
2022-11-27T19:12:10.703Z,9.68
2022-11-27T19:13:43.022Z,9.23
2022-11-27T19:15:14.806Z,9.70
2022-11-27T19:16:47.057Z,10.45
2022-11-27T19:18:18.899Z,9.30
2022-11-27T19:19:54.225Z,9.00
2022-11-27T19:23:01.570Z,14.63
2022-11-27T19:24:33.491Z,11.88
2022-11-27T19:26:10.383Z,10.35
2022-11-27T19:27:42.959Z,9.88
2022-11-27T19:29:14.981Z,9.20
2022-11-27T19:30:48.204Z,8.93
2022-11-27T19:32:20.012Z,10.18
2022-11-27T19:33:56.407Z,9.60
2022-11-27T19:35:30.330Z,10.88
2022-11-27T19:37:02.071Z,9.63
2022-11-27T19:38:34.106Z,10.80
2022-11-27T19:40:07.187Z,9.45
2022-11-27T19:41:38.858Z,10.60
2022-11-27T19:43:10.549Z,10.35
2022-11-27T19:44:42.556Z,8.38
2022-11-27T19:46:17.560Z,9.95
2022-11-27T19:47:49.393Z,9.02
2022-11-27T19:49:21.622Z,9.95
2022-11-27T19:50:53.249Z,9.68
2022-11-27T19:52:24.972Z,9.95
2022-11-27T19:53:56.870Z,9.68
2022-11-27T19:55:28.709Z,10.32
2022-11-27T19:57:00.454Z,10.13
2022-11-27T19:58:32.520Z,10.40
2022-11-27T20:00:06.873Z,10.63
2022-11-27T20:01:45.257Z,9.68
2022-11-27T20:03:16.975Z,10.23
2022-11-27T20:04:48.721Z,10.25
2022-11-27T20:06:22.658Z,10.57
2022-11-27T20:07:54.423Z,10.63
2022-11-27T20:09:26.247Z,12.23
2022-11-27T20:10:58.339Z,10.43
2022-11-27T20:12:36.148Z,9.75
2022-11-27T20:14:07.855Z,10.93
2022-11-27T20:15:39.510Z,11.98
2022-11-27T20:17:11.369Z,11.55
2022-11-27T20:18:43.997Z,12.02
2022-11-27T20:20:16.894Z,11.55
2022-11-27T20:21:48.534Z,15.55
2022-11-27T20:23:20.331Z,13.23
2022-11-27T20:25:17.975Z,11.85
2022-11-27T20:26:44.849Z,15.30
2022-11-27T20:28:16.492Z,17.13
2022-11-27T20:29:48.635Z,17.13
2022-11-27T20:31:24.987Z,11.73
2022-11-27T20:33:00.878Z,13.05
2022-11-27T20:34:36.101Z,11.63
2022-11-27T20:36:16.397Z,11.15
2022-11-27T20:37:48.103Z,11.40
2022-11-27T20:39:21.983Z,13.65
2022-11-27T20:40:55.086Z,10.82
2022-11-27T20:42:28.446Z,12.48
2022-11-27T20:44:02.363Z,12.43
2022-11-27T20:45:39.982Z,12.02
2022-11-27T20:47:11.637Z,11.48
2022-11-27T20:48:48.190Z,12.70
2022-11-27T20:50:20.029Z,11.48
2022-11-27T20:51:53.616Z,13.60
2022-11-27T20:53:27.166Z,13.82
2022-11-27T20:54:59.852Z,14.27
2022-11-27T20:56:33.660Z,13.65
2022-11-27T20:58:05.533Z,12.23
2022-11-27T20:59:37.881Z,13.43
2022-11-27T21:01:33.972Z,11.95
2022-11-27T21:03:06.607Z,12.63
2022-11-27T21:04:38.777Z,10.63
2022-11-27T21:06:10.754Z,10.82
2022-11-27T21:07:42.686Z,10.68
2022-11-27T21:09:14.547Z,11.43
2022-11-27T21:10:47.251Z,11.70
2022-11-27T21:12:19.045Z,12.63
2022-11-27T21:14:02.769Z,11.88